createdAt,value
2023-04-27T00:00:18.953Z,4.52
2023-04-27T00:01:18.977Z,4.52
2023-04-27T00:02:19.252Z,4.51
2023-04-27T00:03:19.279Z,4.5
2023-04-27T00:04:19.405Z,4.5
2023-04-27T00:05:19.168Z,4.51
2023-04-27T00:06:19.278Z,4.51
2023-04-27T00:07:19.224Z,4.52
2023-04-27T00:08:19.252Z,4.53
2023-04-27T00:09:19.302Z,4.53
2023-04-27T00:10:19.378Z,4.52
2023-04-27T00:11:19.376Z,4.52
2023-04-27T00:12:19.422Z,4.54
2023-04-27T00:13:19.464Z,4.52
2023-04-27T00:14:19.491Z,4.54
2023-04-27T00:15:19.533Z,4.55
2023-04-27T00:16:19.602Z,4.55
2023-04-27T00:17:19.611Z,4.54
2023-04-27T00:18:19.734Z,4.57
2023-04-27T00:19:19.695Z,4.59
2023-04-27T00:20:19.745Z,4.57
2023-04-27T00:21:19.828Z,4.62
2023-04-27T00:22:19.822Z,4.64
2023-04-27T00:23:19.859Z,4.65
2023-04-27T00:24:19.908Z,4.61
2023-04-27T00:25:19.957Z,4.61
2023-04-27T00:26:20.010Z,4.62
2023-04-27T00:27:20.049Z,4.61
2023-04-27T00:28:20.086Z,4.59
2023-04-27T00:29:20.109Z,4.59
2023-04-27T00:30:20.156Z,4.6
2023-04-27T00:31:20.229Z,4.61
2023-04-27T00:32:20.257Z,4.63
2023-04-27T00:33:20.309Z,4.59
2023-04-27T00:34:20.322Z,4.58
2023-04-27T00:35:20.350Z,4.59
2023-04-27T00:36:20.389Z,4.57
2023-04-27T00:37:20.427Z,4.59
2023-04-27T00:38:20.494Z,4.56
2023-04-27T00:39:20.531Z,4.58
2023-04-27T00:40:20.549Z,4.63
2023-04-27T00:41:20.594Z,4.58
2023-04-27T00:42:20.625Z,4.57
2023-04-27T00:43:20.665Z,4.56
2023-04-27T00:44:20.746Z,4.58
2023-04-27T00:45:20.764Z,4.58
2023-04-27T00:46:20.830Z,4.55
2023-04-27T00:47:20.883Z,4.56
2023-04-27T00:48:20.879Z,4.52
2023-04-27T00:49:20.931Z,4.54
2023-04-27T00:50:20.959Z,4.51
2023-04-27T00:51:21.008Z,4.51
2023-04-27T00:52:21.054Z,4.49
2023-04-27T00:53:21.095Z,4.51
2023-04-27T00:54:21.132Z,4.46
2023-04-27T00:55:21.185Z,4.45
2023-04-27T00:56:21.215Z,4.41
2023-04-27T00:57:21.259Z,4.41
2023-04-27T00:58:21.303Z,4.43
2023-04-27T00:59:21.352Z,4.42
2023-04-27T01:00:21.415Z,4.42
2023-04-27T01:01:21.506Z,4.43
2023-04-27T01:02:21.573Z,4.45
2023-04-27T01:03:21.652Z,4.44
2023-04-27T01:04:21.672Z,4.44
2023-04-27T01:05:21.604Z,4.45
2023-04-27T01:06:21.656Z,4.44
2023-04-27T01:07:21.678Z,4.43
2023-04-27T01:08:21.731Z,4.46
2023-04-27T01:09:21.774Z,4.43
2023-04-27T01:10:21.824Z,4.44
2023-04-27T01:11:21.855Z,4.44
2023-04-27T01:12:21.915Z,4.46
2023-04-27T01:13:21.970Z,4.45
2023-04-27T01:14:21.993Z,4.46
2023-04-27T01:15:22.032Z,4.45
2023-04-27T01:16:22.093Z,4.48
2023-04-27T01:17:22.116Z,4.48
2023-04-27T01:18:22.175Z,4.45
2023-04-27T01:19:22.200Z,4.45
2023-04-27T01:20:22.238Z,4.45
2023-04-27T01:21:22.285Z,4.46
2023-04-27T01:22:22.333Z,4.47
2023-04-27T01:23:22.403Z,4.44
2023-04-27T01:24:22.426Z,4.44
2023-04-27T01:25:22.451Z,4.45
2023-04-27T01:26:22.503Z,4.47
2023-04-27T01:27:22.549Z,4.47
2023-04-27T01:28:22.609Z,4.44
2023-04-27T01:29:22.661Z,4.44
2023-04-27T01:30:22.781Z,4.42
2023-04-27T01:31:22.791Z,4.45
2023-04-27T01:32:22.777Z,4.43
2023-04-27T01:33:22.830Z,4.43
2023-04-27T01:34:22.853Z,4.42
2023-04-27T01:35:22.897Z,4.44
2023-04-27T01:36:22.926Z,4.46
2023-04-27T01:37:22.963Z,4.46
2023-04-27T01:38:23.022Z,4.48
2023-04-27T01:39:23.051Z,4.4
2023-04-27T01:40:23.107Z,4.42
2023-04-27T01:41:23.129Z,4.43
2023-04-27T01:42:23.171Z,4.43
2023-04-27T01:43:23.213Z,4.43
2023-04-27T01:44:23.259Z,4.43
2023-04-27T01:45:23.301Z,4.42
2023-04-27T01:46:23.396Z,4.45
2023-04-27T01:47:23.528Z,4.43
2023-04-27T01:48:23.430Z,4.44
2023-04-27T01:49:23.492Z,4.44
2023-04-27T01:50:23.518Z,4.45
2023-04-27T01:51:23.558Z,4.44
2023-04-27T01:52:23.603Z,4.44
2023-04-27T01:53:23.636Z,4.42
2023-04-27T01:54:23.692Z,4.42
2023-04-27T01:55:23.728Z,4.42
2023-04-27T01:56:23.763Z,4.42
2023-04-27T01:57:23.805Z,4.37
2023-04-27T01:58:23.840Z,4.36
2023-04-27T01:59:23.899Z,4.37
2023-04-27T02:00:23.924Z,4.36
2023-04-27T02:01:24.010Z,4.36
2023-04-27T02:02:24.140Z,4.35
2023-04-27T02:03:24.216Z,4.37
2023-04-27T02:04:24.250Z,4.36
2023-04-27T02:05:24.149Z,4.34
2023-04-27T02:06:24.212Z,4.36
2023-04-27T02:07:24.237Z,4.36
2023-04-27T02:08:24.284Z,4.35
2023-04-27T02:09:24.338Z,4.36
2023-04-27T02:10:24.382Z,4.35
2023-04-27T02:11:24.403Z,4.34
2023-04-27T02:12:24.483Z,4.35
2023-04-27T02:13:24.504Z,4.38
2023-04-27T02:14:24.515Z,4.37
2023-04-27T02:15:24.578Z,4.38
2023-04-27T02:16:24.681Z,4.39
2023-04-27T02:17:24.680Z,4.38
2023-04-27T02:18:24.690Z,4.36
2023-04-27T02:19:24.733Z,4.32
2023-04-27T02:20:24.777Z,4.3
2023-04-27T02:21:24.809Z,4.31
2023-04-27T02:22:24.866Z,4.3
2023-04-27T02:23:24.913Z,4.31
2023-04-27T02:24:24.945Z,4.29
2023-04-27T02:25:25.003Z,4.3
2023-04-27T02:26:25.025Z,4.31
2023-04-27T02:27:25.073Z,4.29
2023-04-27T02:28:25.101Z,4.3
2023-04-27T02:29:25.142Z,4.29
2023-04-27T02:30:25.192Z,4.32
2023-04-27T02:31:25.296Z,4.33
2023-04-27T02:32:25.317Z,4.32
2023-04-27T02:33:25.315Z,4.32
2023-04-27T02:34:25.351Z,4.31
2023-04-27T02:35:25.389Z,4.32
2023-04-27T02:36:25.445Z,4.33
2023-04-27T02:37:25.473Z,4.34
2023-04-27T02:38:25.522Z,4.34
2023-04-27T02:39:25.560Z,4.34
2023-04-27T02:40:25.597Z,4.31
2023-04-27T02:41:25.658Z,4.36
2023-04-27T02:42:25.693Z,4.32
2023-04-27T02:43:25.730Z,4.31
2023-04-27T02:44:25.759Z,4.31
2023-04-27T02:45:25.810Z,4.31
2023-04-27T02:46:25.927Z,4.33
2023-04-27T02:47:25.969Z,4.32
2023-04-27T02:48:25.930Z,4.33
2023-04-27T02:49:25.964Z,4.32
2023-04-27T02:50:26.022Z,4.3
2023-04-27T02:51:26.092Z,4.24
2023-04-27T02:52:26.094Z,4.23
2023-04-27T02:53:26.147Z,4.23
2023-04-27T02:54:26.178Z,4.24
2023-04-27T02:55:26.223Z,4.22
2023-04-27T02:56:26.253Z,4.21
2023-04-27T02:57:26.306Z,4.19
2023-04-27T02:58:26.345Z,4.2
2023-04-27T02:59:26.374Z,4.21
2023-04-27T03:00:26.434Z,4.23
2023-04-27T03:01:26.580Z,4.24
2023-04-27T03:02:26.597Z,4.24
2023-04-27T03:03:26.782Z,4.25
2023-04-27T03:04:26.693Z,4.23
2023-04-27T03:05:26.647Z,4.22
2023-04-27T03:06:26.694Z,4.21
2023-04-27T03:07:26.771Z,4.2
2023-04-27T03:08:26.780Z,4.2
2023-04-27T03:09:26.819Z,4.21
2023-04-27T03:10:26.860Z,4.2
2023-04-27T03:11:26.900Z,4.21
2023-04-27T03:12:26.955Z,4.2
2023-04-27T03:13:26.984Z,4.2
2023-04-27T03:14:27.050Z,4.2
2023-04-27T03:15:27.065Z,4.19
2023-04-27T03:16:27.175Z,4.19
2023-04-27T03:17:27.188Z,4.18
2023-04-27T03:18:27.195Z,4.2
2023-04-27T03:19:27.233Z,4.18
2023-04-27T03:20:27.274Z,4.18
2023-04-27T03:21:27.308Z,4.18
2023-04-27T03:22:27.348Z,4.18
2023-04-27T03:23:27.397Z,4.18
2023-04-27T03:24:27.424Z,4.17
2023-04-27T03:25:27.473Z,4.19
2023-04-27T03:26:27.536Z,4.14
2023-04-27T03:27:27.559Z,4.15
2023-04-27T03:28:27.619Z,4.13
2023-04-27T03:29:27.636Z,4.12
2023-04-27T03:30:27.674Z,4.12
2023-04-27T03:31:27.759Z,4.12
2023-04-27T03:32:27.806Z,4.08
2023-04-27T03:33:27.798Z,4.09
2023-04-27T03:34:27.831Z,4.07
2023-04-27T03:35:27.881Z,4.1
2023-04-27T03:36:27.901Z,4.09
2023-04-27T03:37:27.957Z,4.1
2023-04-27T03:38:28.024Z,4.11
2023-04-27T03:39:28.042Z,4.12
2023-04-27T03:40:28.087Z,4.11
2023-04-27T03:41:28.130Z,4.1
2023-04-27T03:42:28.162Z,4.11
2023-04-27T03:43:28.227Z,4.11
2023-04-27T03:44:28.250Z,4.13
2023-04-27T03:45:28.293Z,4.13
2023-04-27T03:46:28.351Z,4.14
2023-04-27T03:47:28.398Z,4.12
2023-04-27T03:48:28.415Z,4.14
2023-04-27T03:49:28.451Z,4.16
2023-04-27T03:50:30.160Z,4.17
2023-04-27T03:51:28.540Z,4.17
2023-04-27T03:52:28.584Z,4.17
2023-04-27T03:53:28.628Z,4.2
2023-04-27T03:54:28.691Z,4.19
2023-04-27T03:55:28.736Z,4.2
2023-04-27T03:56:28.772Z,4.19
2023-04-27T03:57:28.796Z,4.2
2023-04-27T03:58:28.835Z,4.19
2023-04-27T03:59:28.883Z,4.17
2023-04-27T04:00:28.914Z,4.18
2023-04-27T04:01:28.957Z,4.17
2023-04-27T04:02:29.165Z,4.18
2023-04-27T04:03:29.234Z,4.18
2023-04-27T04:04:29.308Z,4.21
2023-04-27T04:05:29.109Z,4.22
2023-04-27T04:06:29.149Z,4.25
2023-04-27T04:07:29.203Z,4.26
2023-04-27T04:08:29.239Z,4.24
2023-04-27T04:09:29.271Z,4.25
2023-04-27T04:10:29.327Z,4.23
2023-04-27T04:11:29.351Z,4.22
2023-04-27T04:12:29.394Z,4.2
2023-04-27T04:13:29.425Z,4.19
2023-04-27T04:14:29.477Z,4.21
2023-04-27T04:15:29.533Z,4.19
2023-04-27T04:16:29.577Z,4.16
2023-04-27T04:17:29.636Z,4.15
2023-04-27T04:18:29.634Z,4.15
2023-04-27T04:19:29.683Z,4.17
2023-04-27T04:20:29.735Z,4.18
2023-04-27T04:21:29.760Z,4.13
2023-04-27T04:22:29.805Z,4.14
2023-04-27T04:23:29.867Z,4.15
2023-04-27T04:24:29.882Z,4.15
2023-04-27T04:25:29.938Z,4.16
2023-04-27T04:26:29.971Z,4.16
2023-04-27T04:27:30.015Z,4.16
2023-04-27T04:28:30.047Z,4.16
2023-04-27T04:29:30.085Z,4.16
2023-04-27T04:30:30.144Z,4.13
2023-04-27T04:31:30.219Z,4.15
2023-04-27T04:32:30.239Z,4.17
2023-04-27T04:33:30.255Z,4.17
2023-04-27T04:34:30.291Z,4.22
2023-04-27T04:35:30.330Z,4.2
2023-04-27T04:36:30.370Z,4.21
2023-04-27T04:37:30.423Z,4.24
2023-04-27T04:38:30.453Z,4.23
2023-04-27T04:39:30.492Z,4.23
2023-04-27T04:40:30.535Z,4.25
2023-04-27T04:41:30.584Z,4.25
2023-04-27T04:42:30.611Z,4.25
2023-04-27T04:43:30.641Z,4.25
2023-04-27T04:44:30.686Z,4.26
2023-04-27T04:45:30.729Z,4.27
2023-04-27T04:46:31.030Z,4.26
2023-04-27T04:47:30.857Z,4.25
2023-04-27T04:48:30.846Z,4.24
2023-04-27T04:49:30.895Z,4.26
2023-04-27T04:50:30.932Z,4.24
2023-04-27T04:51:30.993Z,4.25
2023-04-27T04:52:31.035Z,4.26
2023-04-27T04:53:31.049Z,4.3
2023-04-27T04:54:31.093Z,4.28
2023-04-27T04:55:31.137Z,4.29
2023-04-27T04:56:31.182Z,4.31
2023-04-27T04:57:31.205Z,4.36
2023-04-27T04:58:31.247Z,4.37
2023-04-27T04:59:32.154Z,4.38
2023-04-27T05:00:31.368Z,4.4
2023-04-27T05:01:31.428Z,4.4
2023-04-27T05:02:31.534Z,4.38
2023-04-27T05:03:31.580Z,4.36
2023-04-27T05:04:31.557Z,4.39
2023-04-27T05:05:31.513Z,4.4
2023-04-27T05:06:31.547Z,4.4
2023-04-27T05:07:31.601Z,4.4
2023-04-27T05:08:31.640Z,4.39
2023-04-27T05:09:31.673Z,4.41
2023-04-27T05:10:31.717Z,4.4
2023-04-27T05:11:31.738Z,4.41
2023-04-27T05:12:31.992Z,4.41
2023-04-27T05:13:31.829Z,4.42
2023-04-27T05:14:31.865Z,4.4
2023-04-27T05:15:31.892Z,4.4
2023-04-27T05:16:32.015Z,4.45
2023-04-27T05:17:32.030Z,4.49
2023-04-27T05:18:32.022Z,4.48
2023-04-27T05:19:32.065Z,4.5
2023-04-27T05:20:32.107Z,4.45
2023-04-27T05:21:32.141Z,4.48
2023-04-27T05:22:32.174Z,4.47
2023-04-27T05:23:32.233Z,4.49
2023-04-27T05:24:32.266Z,4.48
2023-04-27T05:25:32.303Z,4.49
2023-04-27T05:26:32.350Z,4.52
2023-04-27T05:27:32.383Z,4.5
2023-04-27T05:28:32.439Z,4.48
2023-04-27T05:29:32.497Z,4.51
2023-04-27T05:30:32.517Z,4.5
2023-04-27T05:31:32.590Z,4.56
2023-04-27T05:32:32.637Z,4.55
2023-04-27T05:33:32.645Z,4.6
2023-04-27T05:34:32.670Z,4.58
2023-04-27T05:35:32.719Z,4.56
2023-04-27T05:36:32.764Z,4.57
2023-04-27T05:37:32.830Z,4.59
2023-04-27T05:38:32.839Z,4.57
2023-04-27T05:39:32.897Z,4.59
2023-04-27T05:40:32.922Z,4.56
2023-04-27T05:41:32.972Z,4.57
2023-04-27T05:42:33.036Z,4.59
2023-04-27T05:43:33.044Z,4.56
2023-04-27T05:44:33.117Z,4.62
2023-04-27T05:45:33.146Z,4.6
2023-04-27T05:46:33.155Z,4.57
2023-04-27T05:47:33.245Z,4.62
2023-04-27T05:48:33.249Z,4.61
2023-04-27T05:49:33.287Z,4.68
2023-04-27T05:50:33.328Z,4.69
2023-04-27T05:51:33.366Z,4.73
2023-04-27T05:52:33.400Z,4.71
2023-04-27T05:53:33.438Z,4.71
2023-04-27T05:54:33.492Z,4.71
2023-04-27T05:55:33.551Z,4.76
2023-04-27T05:56:33.571Z,4.75
2023-04-27T05:57:33.610Z,4.73
2023-04-27T05:58:33.653Z,4.69
2023-04-27T05:59:33.686Z,4.68
2023-04-27T06:00:33.755Z,4.68
2023-04-27T06:01:33.767Z,4.72
2023-04-27T06:02:33.917Z,4.76
2023-04-27T06:03:34.056Z,4.74
2023-04-27T06:04:33.963Z,4.77
2023-04-27T06:05:34.023Z,4.74
2023-04-27T06:06:33.954Z,4.74
2023-04-27T06:07:34.003Z,4.8
2023-04-27T06:08:34.042Z,4.8
2023-04-27T06:09:34.083Z,4.79
2023-04-27T06:10:34.126Z,4.8
2023-04-27T06:11:34.175Z,4.87
2023-04-27T06:12:34.207Z,4.8
2023-04-27T06:13:34.247Z,4.81
2023-04-27T06:14:34.294Z,4.86
2023-04-27T06:15:34.395Z,4.83
2023-04-27T06:16:34.452Z,4.83
2023-04-27T06:17:34.427Z,4.78
2023-04-27T06:18:34.461Z,4.74
2023-04-27T06:19:34.501Z,4.71
2023-04-27T06:20:34.536Z,4.71
2023-04-27T06:21:34.579Z,4.74
2023-04-27T06:22:34.618Z,4.84
2023-04-27T06:23:34.650Z,4.9
2023-04-27T06:24:34.690Z,4.96
2023-04-27T06:25:34.725Z,4.97
2023-04-27T06:26:34.786Z,4.95
2023-04-27T06:27:34.808Z,5.02
2023-04-27T06:28:34.863Z,5.05
2023-04-27T06:29:34.892Z,5.1
2023-04-27T06:30:35.479Z,5.06
2023-04-27T06:31:35.073Z,5.06
2023-04-27T06:32:35.031Z,5.09
2023-04-27T06:33:35.030Z,5.09
2023-04-27T06:34:35.075Z,5.16
2023-04-27T06:35:35.117Z,5.22
2023-04-27T06:36:35.171Z,5.16
2023-04-27T06:37:35.223Z,5.18
2023-04-27T06:38:35.252Z,5.18
2023-04-27T06:39:35.292Z,5.17
2023-04-27T06:40:35.328Z,5.21
2023-04-27T06:41:35.478Z,5.25
2023-04-27T06:42:35.396Z,5.24
2023-04-27T06:43:35.455Z,5.26
2023-04-27T06:44:35.497Z,5.35
2023-04-27T06:45:35.526Z,5.33
2023-04-27T06:46:35.597Z,5.33
2023-04-27T06:47:35.600Z,5.34
2023-04-27T06:48:35.650Z,5.18
2023-04-27T06:49:35.700Z,5.2
2023-04-27T06:50:35.739Z,5.19
2023-04-27T06:51:35.787Z,5.18
2023-04-27T06:52:35.812Z,5.18
2023-04-27T06:53:35.862Z,5.18
2023-04-27T06:54:35.910Z,5.21
2023-04-27T06:55:35.927Z,5.22
2023-04-27T06:56:36.147Z,5.24
2023-04-27T06:57:36.012Z,5.17
2023-04-27T06:58:36.054Z,5.18
2023-04-27T06:59:36.184Z,5.22
2023-04-27T07:00:36.139Z,5.18
2023-04-27T07:01:36.211Z,5.17
2023-04-27T07:02:36.338Z,5.22
2023-04-27T07:03:36.378Z,5.22
2023-04-27T07:04:36.327Z,5.23
2023-04-27T07:05:36.320Z,5.25
2023-04-27T07:06:36.368Z,5.31
2023-04-27T07:07:36.416Z,5.24
2023-04-27T07:08:36.471Z,5.19
2023-04-27T07:09:36.500Z,5.18
2023-04-27T07:10:36.529Z,5.2
2023-04-27T07:11:36.573Z,5.22
2023-04-27T07:12:36.615Z,5.26
2023-04-27T07:13:36.666Z,5.26
2023-04-27T07:14:36.700Z,5.26
2023-04-27T07:15:36.954Z,5.24
2023-04-27T07:16:36.947Z,5.25
2023-04-27T07:17:36.839Z,5.32
2023-04-27T07:18:36.871Z,5.35
2023-04-27T07:19:36.918Z,5.33
2023-04-27T07:20:36.937Z,5.32
2023-04-27T07:21:36.981Z,5.35
2023-04-27T07:22:37.025Z,5.35
2023-04-27T07:23:37.076Z,5.37
2023-04-27T07:24:37.139Z,5.44
2023-04-27T07:25:37.150Z,5.45
2023-04-27T07:26:37.193Z,5.45
2023-04-27T07:27:37.434Z,5.48
2023-04-27T07:28:37.272Z,5.51
2023-04-27T07:29:37.492Z,5.6
2023-04-27T07:30:37.366Z,5.65
2023-04-27T07:31:37.397Z,5.71
2023-04-27T07:32:37.446Z,5.68
2023-04-27T07:33:37.456Z,5.68
2023-04-27T07:34:51.923Z,5.63
2023-04-27T07:35:37.559Z,5.6
2023-04-27T07:36:37.595Z,5.54
2023-04-27T07:37:37.624Z,5.59
2023-04-27T07:38:37.680Z,5.64
2023-04-27T07:39:37.703Z,5.7
2023-04-27T07:40:37.744Z,5.76
2023-04-27T07:41:37.784Z,5.87
2023-04-27T07:42:37.812Z,5.93
2023-04-27T07:43:37.843Z,6.02
2023-04-27T07:44:37.888Z,5.99
2023-04-27T07:45:38.031Z,6.04
2023-04-27T07:46:37.974Z,6.09
2023-04-27T07:47:38.052Z,6.17
2023-04-27T07:48:38.052Z,6.21
2023-04-27T07:49:38.086Z,6.21
2023-04-27T07:50:38.123Z,6.17
2023-04-27T07:51:38.316Z,6.2
2023-04-27T07:52:38.229Z,6.21
2023-04-27T07:53:38.231Z,6.11
2023-04-27T07:54:38.285Z,6.1
2023-04-27T07:55:38.309Z,6.14
2023-04-27T07:56:38.370Z,6.13
2023-04-27T07:57:38.389Z,6.14
2023-04-27T07:58:38.445Z,6.15
2023-04-27T07:59:38.482Z,6.17
2023-04-27T08:00:38.514Z,6.15
2023-04-27T08:01:38.587Z,6.1
2023-04-27T08:02:38.863Z,6.04
2023-04-27T08:03:38.990Z,6.03
2023-04-27T08:04:39.178Z,5.98
2023-04-27T08:05:39.106Z,5.99
2023-04-27T08:06:39.309Z,5.95
2023-04-27T08:07:44.066Z,5.97
2023-04-27T08:08:38.824Z,6.01
2023-04-27T08:09:38.848Z,6.13
2023-04-27T08:10:38.881Z,6.2
2023-04-27T08:11:38.921Z,6.18
2023-04-27T08:12:38.961Z,6.17
2023-04-27T08:13:39.024Z,6.23
2023-04-27T08:14:39.040Z,6.42
2023-04-27T08:15:39.088Z,6.54
2023-04-27T08:16:39.151Z,6.51
2023-04-27T08:17:39.204Z,6.41
2023-04-27T08:18:39.224Z,6.31
2023-04-27T08:19:39.258Z,6.29
2023-04-27T08:20:39.281Z,6.13
2023-04-27T08:21:39.325Z,6.14
2023-04-27T08:22:39.359Z,6.12
2023-04-27T08:23:39.405Z,6.08
2023-04-27T08:24:39.456Z,6.05
2023-04-27T08:25:39.477Z,6
2023-04-27T08:26:39.520Z,5.95
2023-04-27T08:27:39.567Z,5.91
2023-04-27T08:28:39.597Z,5.95
2023-04-27T08:29:39.649Z,5.93
2023-04-27T08:30:39.680Z,5.88
2023-04-27T08:31:39.757Z,5.88
2023-04-27T08:32:39.802Z,5.87
2023-04-27T08:33:39.794Z,5.86
2023-04-27T08:34:39.826Z,5.76
2023-04-27T08:35:39.892Z,5.78
2023-04-27T08:36:39.917Z,5.81
2023-04-27T08:37:39.953Z,5.93
2023-04-27T08:38:39.995Z,6.1
2023-04-27T08:39:40.041Z,6.12
2023-04-27T08:40:40.106Z,6.26
2023-04-27T08:41:40.107Z,6.39
2023-04-27T08:42:40.150Z,6.38
2023-04-27T08:43:40.201Z,6.31
2023-04-27T08:44:40.250Z,6.18
2023-04-27T08:45:40.275Z,6.24
2023-04-27T08:46:40.334Z,6.18
2023-04-27T08:47:43.708Z,6.2
2023-04-27T08:48:40.381Z,6.09
2023-04-27T08:49:40.419Z,6.08
2023-04-27T08:50:40.459Z,5.98
2023-04-27T08:51:40.515Z,5.98
2023-04-27T08:52:40.574Z,5.93
2023-04-27T08:53:40.586Z,5.84
2023-04-27T08:54:40.631Z,5.8
2023-04-27T08:55:40.675Z,5.81
2023-04-27T08:56:40.710Z,5.81
2023-04-27T08:57:40.766Z,5.75
2023-04-27T08:58:40.781Z,5.79
2023-04-27T08:59:40.828Z,5.76
2023-04-27T09:00:40.878Z,5.71
2023-04-27T09:01:40.956Z,5.75
2023-04-27T09:02:41.048Z,5.8
2023-04-27T09:03:41.189Z,5.84
2023-04-27T09:04:41.201Z,5.82
2023-04-27T09:05:49.431Z,5.84
2023-04-27T09:06:41.108Z,5.89
2023-04-27T09:07:41.218Z,5.94
2023-04-27T09:08:41.181Z,5.91
2023-04-27T09:09:41.232Z,5.94
2023-04-27T09:10:41.267Z,5.95
2023-04-27T09:11:41.303Z,5.97
2023-04-27T09:12:41.362Z,6.04
2023-04-27T09:13:41.381Z,6.09
2023-04-27T09:14:41.425Z,6.03
2023-04-27T09:15:41.451Z,6.06
2023-04-27T09:16:41.548Z,6.11
2023-04-27T09:17:41.581Z,6.13
2023-04-27T09:18:41.582Z,6.12
2023-04-27T09:19:41.624Z,6.13
2023-04-27T09:20:41.659Z,6.12
2023-04-27T09:21:41.694Z,6.11
2023-04-27T09:22:41.736Z,6.02
2023-04-27T09:23:41.795Z,6.06
2023-04-27T09:24:41.816Z,6.07
2023-04-27T09:25:41.851Z,6.13
2023-04-27T09:26:41.889Z,6.09
2023-04-27T09:27:41.924Z,6.07
2023-04-27T09:28:41.981Z,6.03
2023-04-27T09:29:42.031Z,6.07
2023-04-27T09:30:42.040Z,6.05
2023-04-27T09:31:42.120Z,6.05
2023-04-27T09:32:42.137Z,5.92
2023-04-27T09:33:42.186Z,5.92
2023-04-27T09:34:42.209Z,5.92
2023-04-27T09:35:42.249Z,5.91
2023-04-27T09:36:42.300Z,6.08
2023-04-27T09:37:42.323Z,6.11
2023-04-27T09:38:42.390Z,6.17
2023-04-27T09:39:42.401Z,6.1
2023-04-27T09:40:42.450Z,6.11
2023-04-27T09:41:42.521Z,6.14
2023-04-27T09:42:42.540Z,6.14
2023-04-27T09:43:42.572Z,6.14
2023-04-27T09:44:42.609Z,6.26
2023-04-27T09:45:42.659Z,6.23
2023-04-27T09:46:42.683Z,6.19
2023-04-27T09:47:42.873Z,6.18
2023-04-27T09:48:42.775Z,6.24
2023-04-27T09:49:42.804Z,6.17
2023-04-27T09:50:42.857Z,6.21
2023-04-27T09:51:42.889Z,6.25
2023-04-27T09:52:42.934Z,6.18
2023-04-27T09:53:43.001Z,6.21
2023-04-27T09:54:43.020Z,6.22
2023-04-27T09:55:43.052Z,6.22
2023-04-27T09:56:43.080Z,6.23
2023-04-27T09:57:43.131Z,6.27
2023-04-27T09:58:43.560Z,6.45
2023-04-27T09:59:43.211Z,6.45
2023-04-27T10:00:43.229Z,6.5
2023-04-27T10:01:43.451Z,6.64
2023-04-27T10:02:52.579Z,6.66
2023-04-27T10:03:43.556Z,6.66
2023-04-27T10:04:43.477Z,6.62
2023-04-27T10:05:43.442Z,6.49
2023-04-27T10:06:43.490Z,6.59
2023-04-27T10:07:43.529Z,6.62
2023-04-27T10:08:43.558Z,6.58
2023-04-27T10:09:43.594Z,6.74
2023-04-27T10:10:43.648Z,6.78
2023-04-27T10:11:43.707Z,6.76
2023-04-27T10:12:43.723Z,6.79
2023-04-27T10:13:43.757Z,6.86
2023-04-27T10:14:43.800Z,6.93
2023-04-27T10:15:43.843Z,6.99
2023-04-27T10:16:43.950Z,7.21
2023-04-27T10:17:43.943Z,7.31
2023-04-27T10:18:43.975Z,7.21
2023-04-27T10:19:43.991Z,7.16
2023-04-27T10:20:44.025Z,7.17
2023-04-27T10:21:44.061Z,7.08
2023-04-27T10:22:44.092Z,7.16
2023-04-27T10:23:44.159Z,7.14
2023-04-27T10:24:44.187Z,7.1
2023-04-27T10:25:44.225Z,7
2023-04-27T10:26:44.254Z,7.02
2023-04-27T10:27:44.311Z,7.02
2023-04-27T10:28:44.362Z,7.06
2023-04-27T10:29:44.382Z,7.07
2023-04-27T10:30:44.436Z,7.09
2023-04-27T10:31:44.470Z,7.11
2023-04-27T10:32:44.555Z,7.13
2023-04-27T10:33:44.565Z,7.15
2023-04-27T10:34:44.585Z,7.24
2023-04-27T10:35:44.623Z,7.31
2023-04-27T10:36:44.656Z,7.24
2023-04-27T10:37:44.689Z,7.29
2023-04-27T10:38:44.740Z,7.37
2023-04-27T10:39:49.125Z,7.53
2023-04-27T10:40:44.810Z,7.51
2023-04-27T10:41:44.841Z,7.7
2023-04-27T10:42:44.884Z,7.84
2023-04-27T10:43:44.933Z,7.93
2023-04-27T10:44:44.979Z,8.07
2023-04-27T10:45:44.997Z,8.09
2023-04-27T10:46:45.043Z,8.12
2023-04-27T10:47:45.138Z,8.23
2023-04-27T10:48:45.137Z,8.34
2023-04-27T10:49:45.158Z,8.33
2023-04-27T10:50:45.184Z,8.36
2023-04-27T10:51:45.235Z,8.45
2023-04-27T10:52:45.268Z,8.54
2023-04-27T10:53:45.309Z,8.73
2023-04-27T10:54:45.360Z,8.83
2023-04-27T10:55:45.416Z,8.63
2023-04-27T10:56:45.421Z,8.42
2023-04-27T10:57:45.464Z,8.35
2023-04-27T10:58:49.195Z,8.4
2023-04-27T10:59:45.541Z,8.24
2023-04-27T11:00:45.600Z,8.2
2023-04-27T11:01:45.668Z,8.14
2023-04-27T11:02:45.730Z,8.13
2023-04-27T11:03:45.809Z,8.18
2023-04-27T11:04:45.798Z,8.16
2023-04-27T11:05:45.793Z,8.16
2023-04-27T11:06:45.871Z,8.13
2023-04-27T11:07:45.847Z,8.06
2023-04-27T11:08:45.918Z,8.03
2023-04-27T11:09:45.949Z,7.92
2023-04-27T11:10:46.008Z,7.89
2023-04-27T11:11:46.010Z,7.92
2023-04-27T11:12:46.033Z,7.89
2023-04-27T11:13:46.079Z,7.87
2023-04-27T11:14:46.117Z,7.82
2023-04-27T11:15:46.245Z,7.79
2023-04-27T11:16:46.293Z,7.79
2023-04-27T11:17:46.250Z,7.82
2023-04-27T11:18:46.264Z,7.73
2023-04-27T11:19:46.315Z,7.68
2023-04-27T11:20:46.348Z,7.58
2023-04-27T11:21:46.419Z,7.6
2023-04-27T11:22:46.429Z,7.58
2023-04-27T11:23:46.475Z,7.46
2023-04-27T11:24:46.539Z,7.36
2023-04-27T11:25:46.560Z,7.34
2023-04-27T11:26:46.603Z,7.37
2023-04-27T11:27:46.644Z,7.4
2023-04-27T11:28:46.679Z,7.35
2023-04-27T11:29:46.715Z,7.38
2023-04-27T11:30:46.761Z,7.36
2023-04-27T11:31:46.832Z,7.35
2023-04-27T11:32:46.876Z,7.38
2023-04-27T11:33:46.883Z,7.47
2023-04-27T11:34:46.917Z,7.48
2023-04-27T11:35:46.951Z,7.42
2023-04-27T11:36:46.995Z,7.28
2023-04-27T11:37:47.045Z,7.31
2023-04-27T11:38:47.128Z,7.39
2023-04-27T11:39:47.132Z,7.43
2023-04-27T11:40:47.162Z,7.35
2023-04-27T11:41:47.201Z,7.25
2023-04-27T11:42:47.253Z,7.19
2023-04-27T11:43:47.271Z,7.21
2023-04-27T11:44:47.320Z,7.25
2023-04-27T11:45:47.367Z,7.15
2023-04-27T11:46:47.474Z,7.11
2023-04-27T11:47:47.548Z,7.13
2023-04-27T11:48:47.495Z,7.07
2023-04-27T11:49:47.514Z,7.05
2023-04-27T11:50:47.548Z,7.04
2023-04-27T11:51:47.600Z,7.07
2023-04-27T11:52:47.645Z,7.11
2023-04-27T11:53:47.661Z,7.15
2023-04-27T11:54:47.702Z,7.09
2023-04-27T11:55:47.749Z,7.17
2023-04-27T11:56:47.792Z,7.16
2023-04-27T11:57:47.836Z,7.1
2023-04-27T11:58:47.868Z,7.3
2023-04-27T11:59:47.915Z,7.28
2023-04-27T12:00:47.985Z,7.25
2023-04-27T12:01:48.060Z,7.25
2023-04-27T12:02:48.257Z,7.38
2023-04-27T12:03:48.195Z,7.32
2023-04-27T12:04:48.284Z,7.25
2023-04-27T12:05:48.274Z,7.19
2023-04-27T12:06:48.181Z,7.22
2023-04-27T12:07:48.218Z,7.18
2023-04-27T12:08:48.287Z,7.18
2023-04-27T12:09:48.298Z,7.19
2023-04-27T12:10:48.336Z,7.26
2023-04-27T12:11:48.372Z,7.28
2023-04-27T12:12:48.414Z,7.21
2023-04-27T12:13:48.467Z,7.36
2023-04-27T12:14:48.487Z,7.47
2023-04-27T12:15:48.731Z,7.39
2023-04-27T12:16:48.601Z,7.45
2023-04-27T12:17:48.655Z,7.4
2023-04-27T12:18:48.690Z,7.45
2023-04-27T12:19:48.689Z,7.46
2023-04-27T12:20:48.725Z,7.34
2023-04-27T12:21:48.777Z,7.28
2023-04-27T12:22:48.802Z,7.3
2023-04-27T12:23:48.852Z,7.35
2023-04-27T12:24:48.886Z,7.31
2023-04-27T12:25:48.925Z,7.46
2023-04-27T12:26:48.955Z,7.45
2023-04-27T12:27:49.033Z,7.54
2023-04-27T12:28:49.038Z,7.6
2023-04-27T12:29:49.059Z,7.66
2023-04-27T12:30:49.131Z,7.67
2023-04-27T12:31:49.153Z,7.61
2023-04-27T12:32:49.203Z,7.84
2023-04-27T12:33:49.221Z,7.95
2023-04-27T12:34:49.257Z,7.9
2023-04-27T12:35:49.291Z,7.84
2023-04-27T12:36:49.330Z,7.77
2023-04-27T12:37:49.365Z,7.6
2023-04-27T12:38:49.422Z,7.61
2023-04-27T12:39:49.461Z,7.71
2023-04-27T12:40:49.497Z,7.8
2023-04-27T12:41:49.541Z,7.72
2023-04-27T12:42:49.575Z,7.74
2023-04-27T12:43:49.606Z,7.66
2023-04-27T12:44:49.643Z,7.61
2023-04-27T12:45:49.859Z,7.48
2023-04-27T12:46:49.818Z,7.45
2023-04-27T12:48:01.726Z,7.32
2023-04-27T12:48:49.817Z,7.38
2023-04-27T12:49:49.846Z,7.4
2023-04-27T12:50:49.877Z,7.38
2023-04-27T12:51:49.942Z,7.49
2023-04-27T12:52:49.947Z,7.58
2023-04-27T12:53:49.990Z,7.61
2023-04-27T12:54:50.034Z,7.67
2023-04-27T12:55:50.071Z,7.63
2023-04-27T12:56:50.115Z,7.63
2023-04-27T12:57:50.158Z,7.59
2023-04-27T12:58:50.182Z,7.56
2023-04-27T12:59:50.219Z,7.61
2023-04-27T13:00:50.275Z,7.54
2023-04-27T13:01:50.346Z,7.54
2023-04-27T13:02:50.525Z,7.58
2023-04-27T13:03:50.572Z,7.5
2023-04-27T13:04:50.470Z,7.54
2023-04-27T13:05:50.488Z,7.52
2023-04-27T13:06:50.520Z,7.56
2023-04-27T13:07:50.556Z,7.57
2023-04-27T13:08:50.582Z,7.43
2023-04-27T13:09:50.621Z,7.35
2023-04-27T13:10:50.706Z,7.37
2023-04-27T13:11:50.691Z,7.39
2023-04-27T13:12:50.750Z,7.46
2023-04-27T13:13:50.762Z,7.46
2023-04-27T13:14:50.803Z,7.45
2023-04-27T13:15:50.914Z,7.49
2023-04-27T13:16:50.860Z,7.55
2023-04-27T13:17:50.940Z,7.63
2023-04-27T13:18:50.988Z,7.63
2023-04-27T13:19:50.971Z,7.71
2023-04-27T13:20:51.015Z,7.73
2023-04-27T13:21:51.049Z,7.64